createdAt,value
2023-05-10T00:00:32.566Z,3.40
2023-05-10T00:03:14.999Z,3.39
2023-05-10T00:05:45.096Z,3.33
2023-05-10T00:08:15.226Z,3.09
2023-05-10T00:10:44.877Z,3.30
2023-05-10T00:13:15.184Z,3.19
2023-05-10T00:15:44.944Z,3.14
2023-05-10T00:18:16.438Z,3.09
2023-05-10T00:20:47.275Z,3.04
2023-05-10T00:23:17.348Z,2.96
2023-05-10T00:25:47.167Z,3.03
2023-05-10T00:28:17.309Z,2.94
2023-05-10T00:30:46.933Z,2.92
2023-05-10T00:33:19.525Z,2.93
2023-05-10T00:35:49.454Z,2.84
2023-05-10T00:38:19.592Z,2.77
2023-05-10T00:40:49.374Z,2.74
2023-05-10T00:43:27.457Z,2.76
2023-05-10T00:45:57.493Z,2.65
2023-05-10T00:48:29.226Z,2.60
2023-05-10T00:50:59.052Z,2.66
2023-05-10T00:53:29.525Z,2.62
2023-05-10T00:55:59.313Z,2.60
2023-05-10T00:58:29.964Z,2.63
2023-05-10T01:01:00.375Z,2.56
2023-05-10T01:03:32.376Z,2.53
2023-05-10T01:06:02.245Z,2.47
2023-05-10T01:08:32.446Z,2.44
2023-05-10T01:11:02.406Z,2.34
2023-05-10T01:13:35.562Z,2.32
2023-05-10T01:16:05.553Z,2.31
2023-05-10T01:18:38.160Z,2.33
2023-05-10T01:21:13.897Z,2.29
2023-05-10T01:24:01.636Z,2.22
2023-05-10T01:26:57.977Z,2.25
2023-05-10T01:29:40.990Z,2.23
2023-05-10T01:32:27.663Z,2.18
2023-05-10T01:35:01.980Z,2.13
2023-05-10T01:37:36.579Z,2.10
2023-05-10T01:40:11.436Z,2.06
2023-05-10T01:42:43.606Z,2.04
2023-05-10T01:45:17.302Z,2.04
2023-05-10T01:47:51.607Z,2.08
2023-05-10T01:50:23.247Z,2.02
2023-05-10T01:52:55.807Z,2.08
2023-05-10T01:55:27.904Z,2.10
2023-05-10T01:58:01.504Z,2.09
2023-05-10T02:00:32.578Z,2.08
2023-05-10T02:03:06.933Z,2.15
2023-05-10T02:05:38.065Z,2.10
2023-05-10T02:08:09.082Z,2.09
2023-05-10T02:10:42.101Z,2.04
2023-05-10T02:13:12.877Z,1.99
2023-05-10T02:15:44.093Z,1.99
2023-05-10T02:18:17.944Z,2.05
2023-05-10T02:20:49.053Z,2.10
2023-05-10T02:23:20.089Z,2.06
2023-05-10T02:25:50.827Z,1.97
2023-05-10T02:28:20.865Z,2.01
2023-05-10T02:30:51.653Z,1.95
2023-05-10T02:33:24.042Z,1.57
2023-05-10T02:35:56.053Z,1.82
2023-05-10T02:38:27.195Z,1.76
2023-05-10T02:40:57.997Z,1.76
2023-05-10T02:43:28.505Z,1.71
2023-05-10T02:46:00.012Z,1.62
2023-05-10T02:48:33.394Z,1.63
2023-05-10T02:51:07.358Z,1.63
2023-05-10T02:53:39.106Z,1.59
2023-05-10T02:56:15.406Z,1.66
2023-05-10T02:58:45.297Z,1.60
2023-05-10T03:01:15.611Z,1.65
2023-05-10T03:03:47.290Z,1.65
2023-05-10T03:06:18.258Z,1.56
2023-05-10T03:08:48.220Z,1.62
2023-05-10T03:11:31.794Z,1.70
2023-05-10T03:14:14.298Z,1.70
2023-05-10T03:16:48.155Z,1.71
2023-05-10T03:19:25.320Z,1.73
2023-05-10T03:21:56.257Z,1.68
2023-05-10T03:24:30.000Z,1.60
2023-05-10T03:27:04.088Z,1.65
2023-05-10T03:29:35.305Z,1.65
2023-05-10T03:32:07.442Z,1.71
2023-05-10T03:34:43.888Z,1.71
2023-05-10T03:37:14.049Z,1.78
2023-05-10T03:39:44.412Z,1.83
2023-05-10T03:42:14.739Z,1.97
2023-05-10T03:44:44.817Z,2.01
2023-05-10T03:47:15.106Z,2.01
2023-05-10T03:49:46.633Z,2.03
2023-05-10T03:52:17.018Z,2.08
2023-05-10T03:54:47.019Z,2.11
2023-05-10T03:57:17.328Z,2.19
2023-05-10T03:59:47.142Z,2.35
2023-05-10T04:02:18.166Z,2.46
2023-05-10T04:04:49.610Z,2.67
2023-05-10T04:07:20.261Z,2.98
2023-05-10T04:09:49.939Z,3.33
2023-05-10T04:12:20.109Z,3.55
2023-05-10T04:14:49.923Z,3.77
2023-05-10T04:17:20.119Z,4.07
2023-05-10T04:19:54.285Z,4.30
2023-05-10T04:22:24.679Z,4.46
2023-05-10T04:24:54.711Z,4.76
2023-05-10T04:27:25.970Z,4.95
2023-05-10T04:29:55.680Z,5.40
2023-05-10T04:32:25.755Z,5.63
2023-05-10T04:34:56.937Z,6.02
2023-05-10T04:37:27.240Z,6.33
2023-05-10T04:39:57.254Z,6.39
2023-05-10T04:42:27.579Z,6.62
2023-05-10T04:44:57.377Z,6.75
2023-05-10T04:47:27.546Z,6.86
2023-05-10T04:49:59.017Z,7.13
2023-05-10T04:52:29.034Z,6.95
2023-05-10T04:55:01.725Z,7.15
2023-05-10T04:57:31.938Z,7.22
2023-05-10T05:00:03.035Z,7.48
2023-05-10T05:02:34.345Z,7.81
2023-05-10T05:05:05.956Z,8.08
2023-05-10T05:07:36.320Z,8.51
2023-05-10T05:10:06.475Z,8.49
2023-05-10T05:12:37.001Z,9.02
2023-05-10T05:15:09.002Z,9.03
2023-05-10T05:17:39.845Z,9.38
2023-05-10T05:20:11.822Z,9.86
2023-05-10T05:22:41.957Z,9.82
2023-05-10T05:25:12.905Z,9.80
2023-05-10T05:27:43.141Z,9.88
2023-05-10T05:30:14.016Z,10.26
2023-05-10T05:32:44.169Z,10.00
2023-05-10T05:35:16.207Z,9.97
2023-05-10T05:37:46.636Z,10.69
2023-05-10T05:40:16.657Z,10.44
2023-05-10T05:42:46.854Z,10.74
2023-05-10T05:45:17.091Z,11.00
2023-05-10T05:47:47.702Z,10.80
2023-05-10T05:50:19.552Z,10.84
2023-05-10T05:52:49.769Z,11.14
2023-05-10T05:55:19.775Z,11.06
2023-05-10T05:57:50.226Z,11.06
2023-05-10T06:00:20.165Z,11.62
2023-05-10T06:02:50.612Z,11.95
2023-05-10T06:05:22.143Z,11.85
2023-05-10T06:07:52.380Z,11.64
2023-05-10T06:10:22.215Z,11.52
2023-05-10T06:12:52.408Z,11.77
2023-05-10T06:15:22.268Z,11.95
2023-05-10T06:17:52.410Z,11.99
2023-05-10T06:20:23.666Z,12.16
2023-05-10T06:22:53.806Z,12.48
2023-05-10T06:25:23.569Z,12.37
2023-05-10T06:27:58.459Z,12.62
2023-05-10T06:30:30.335Z,12.59
2023-05-10T06:33:00.881Z,12.81
2023-05-10T06:35:33.646Z,12.79
2023-05-10T06:38:03.737Z,12.98
2023-05-10T06:40:34.169Z,13.42
2023-05-10T06:43:04.674Z,13.32
2023-05-10T06:45:34.803Z,13.38
2023-05-10T06:48:05.513Z,13.91
2023-05-10T06:50:36.896Z,14.06
2023-05-10T06:53:07.308Z,13.88
2023-05-10T06:55:37.156Z,14.16
2023-05-10T06:58:07.611Z,14.33
2023-05-10T07:00:40.475Z,14.68
2023-05-10T07:03:11.072Z,14.83
2023-05-10T07:05:42.436Z,14.45
2023-05-10T07:08:13.005Z,14.52
2023-05-10T07:10:42.968Z,14.80
2023-05-10T07:13:13.527Z,15.14
2023-05-10T07:15:43.706Z,15.08
2023-05-10T07:18:13.947Z,15.05
2023-05-10T07:20:45.371Z,15.17
2023-05-10T07:23:15.677Z,15.24
2023-05-10T07:25:47.208Z,15.48
2023-05-10T07:28:18.029Z,15.37
2023-05-10T07:30:47.948Z,15.39
2023-05-10T07:33:18.736Z,15.59
2023-05-10T07:35:50.673Z,16.10
2023-05-10T07:38:21.425Z,15.64
2023-05-10T07:40:51.284Z,15.65
2023-05-10T07:43:21.328Z,15.69
2023-05-10T07:45:51.618Z,15.47
2023-05-10T07:48:22.854Z,15.77
2023-05-10T07:50:54.356Z,16.40
2023-05-10T07:53:24.794Z,16.35
2023-05-10T07:55:57.112Z,16.60
2023-05-10T07:58:27.218Z,16.52
2023-05-10T08:00:57.794Z,16.45
2023-05-10T08:03:28.001Z,16.62
2023-05-10T08:05:59.453Z,16.47
2023-05-10T08:08:29.662Z,16.48
2023-05-10T08:10:59.384Z,16.34
2023-05-10T08:13:29.670Z,16.02
2023-05-10T08:15:59.497Z,16.16
2023-05-10T08:18:29.711Z,16.16
2023-05-10T08:21:01.019Z,16.33
2023-05-10T08:23:31.260Z,16.19
2023-05-10T08:26:01.471Z,16.25
2023-05-10T08:28:31.750Z,16.60
2023-05-10T08:31:01.487Z,16.56
2023-05-10T08:33:32.137Z,16.72
2023-05-10T08:36:03.718Z,16.49
2023-05-10T08:38:33.913Z,16.49
2023-05-10T08:41:04.749Z,16.50
2023-05-10T08:43:35.020Z,16.70
2023-05-10T08:46:07.231Z,16.92
2023-05-10T08:48:38.065Z,16.79
2023-05-10T08:51:10.764Z,16.73
2023-05-10T08:53:41.525Z,17.05
2023-05-10T08:56:11.395Z,17.16
2023-05-10T08:58:42.475Z,17.65
2023-05-10T09:01:12.412Z,17.66
2023-05-10T09:03:42.815Z,17.27
2023-05-10T09:06:15.666Z,17.46
2023-05-10T09:08:46.071Z,17.49
2023-05-10T09:11:16.105Z,17.09
2023-05-10T09:13:46.468Z,17.06
2023-05-10T09:16:21.826Z,17.42
2023-05-10T09:18:52.696Z,17.39
2023-05-10T09:21:24.038Z,17.60
2023-05-10T09:23:55.505Z,17.61
2023-05-10T09:26:25.777Z,17.51
2023-05-10T09:28:56.758Z,17.60
2023-05-10T09:31:27.445Z,18.06
2023-05-10T09:33:58.094Z,17.67
2023-05-10T09:36:29.974Z,17.55
2023-05-10T09:39:00.321Z,17.62
2023-05-10T09:41:30.776Z,17.51
2023-05-10T09:44:01.000Z,17.49
2023-05-10T09:46:38.411Z,17.66
2023-05-10T09:49:08.650Z,17.85
2023-05-10T09:51:40.114Z,17.94
2023-05-10T09:54:14.486Z,18.12
2023-05-10T09:56:44.870Z,17.84
2023-05-10T09:59:15.099Z,17.59
2023-05-10T10:01:45.060Z,17.47
2023-05-10T10:04:15.312Z,17.54
2023-05-10T10:06:46.545Z,17.82
2023-05-10T10:09:17.126Z,17.73
2023-05-10T10:11:47.234Z,17.85
2023-05-10T10:14:17.704Z,17.87
2023-05-10T10:16:59.596Z,18.11
2023-05-10T10:19:37.371Z,18.04
2023-05-10T10:22:08.971Z,18.21
2023-05-10T10:24:39.443Z,18.23
2023-05-10T10:27:18.090Z,18.08
2023-05-10T10:29:52.184Z,18.21
2023-05-10T10:32:27.252Z,18.50
2023-05-10T10:34:58.311Z,18.83
2023-05-10T10:37:42.825Z,18.48
2023-05-10T10:40:27.720Z,18.24
2023-05-10T10:42:57.642Z,18.19
2023-05-10T10:45:28.042Z,18.27
2023-05-10T10:48:15.755Z,18.64
2023-05-10T10:50:46.452Z,18.41
2023-05-10T10:53:16.320Z,18.32
2023-05-10T10:55:51.132Z,18.20
2023-05-10T10:58:41.708Z,18.44
2023-05-10T11:01:12.969Z,18.33
2023-05-10T11:03:43.244Z,18.73
2023-05-10T11:06:13.715Z,18.73
2023-05-10T11:08:49.096Z,18.83
2023-05-10T11:11:21.950Z,18.53
2023-05-10T11:13:52.228Z,18.63
2023-05-10T11:16:22.833Z,18.51
2023-05-10T11:18:56.765Z,18.46
2023-05-10T11:21:27.372Z,18.55
2023-05-10T11:23:58.757Z,18.55
2023-05-10T11:26:33.328Z,18.72
2023-05-10T11:29:03.570Z,18.91
2023-05-10T11:31:33.651Z,18.68
2023-05-10T11:34:04.033Z,18.40
2023-05-10T11:36:36.291Z,18.41
2023-05-10T11:39:06.955Z,18.55
2023-05-10T11:41:39.642Z,18.75
2023-05-10T11:44:11.912Z,19.18
2023-05-10T11:46:42.220Z,18.93
2023-05-10T11:49:13.000Z,18.86
2023-05-10T11:51:44.816Z,18.91
2023-05-10T11:54:14.726Z,18.91
2023-05-10T11:56:46.737Z,18.83
2023-05-10T11:59:17.174Z,19.13
2023-05-10T12:01:47.454Z,19.23
2023-05-10T12:04:17.548Z,19.47
2023-05-10T12:06:48.026Z,19.30
2023-05-10T12:09:22.956Z,19.36
2023-05-10T12:12:05.022Z,20.07
2023-05-10T12:14:36.978Z,20.13
2023-05-10T12:17:07.325Z,20.28
2023-05-10T12:19:40.242Z,20.33
2023-05-10T12:22:10.765Z,20.53
2023-05-10T12:24:41.970Z,20.55
2023-05-10T12:27:14.053Z,20.69
2023-05-10T12:29:45.843Z,20.72
2023-05-10T12:32:16.162Z,20.96
2023-05-10T12:34:49.267Z,21.44
2023-05-10T12:37:19.360Z,21.28
2023-05-10T12:39:49.187Z,21.60
2023-05-10T12:42:20.796Z,21.01
2023-05-10T12:44:50.618Z,20.98
2023-05-10T12:47:20.835Z,21.02
2023-05-10T12:49:51.175Z,20.80
2023-05-10T12:52:21.350Z,20.97
2023-05-10T12:54:51.380Z,20.35
2023-05-10T12:57:22.902Z,20.73
2023-05-10T12:59:53.107Z,20.50
2023-05-10T13:02:24.551Z,20.38
2023-05-10T13:04:54.651Z,20.14
2023-05-10T13:07:24.987Z,20.73
2023-05-10T13:09:54.798Z,20.85
2023-05-10T13:12:26.621Z,21.27
2023-05-10T13:14:56.478Z,20.73
2023-05-10T13:17:27.916Z,20.40
2023-05-10T13:19:57.746Z,20.39
2023-05-10T13:22:39.345Z,20.53
2023-05-10T13:25:10.744Z,20.80
2023-05-10T13:27:42.788Z,20.94
2023-05-10T13:30:13.302Z,20.84
2023-05-10T13:32:43.868Z,20.70
2023-05-10T13:35:13.767Z,20.85
2023-05-10T13:37:43.937Z,21.18
2023-05-10T13:40:15.090Z,21.09
2023-05-10T13:42:47.344Z,21.54
2023-05-10T13:45:17.597Z,21.13
2023-05-10T13:47:49.133Z,21.04
2023-05-10T13:50:19.337Z,21.48
2023-05-10T13:52:49.701Z,21.20
2023-05-10T13:55:19.642Z,21.06
2023-05-10T13:57:51.591Z,21.23
2023-05-10T14:00:21.700Z,21.14
2023-05-10T14:02:52.028Z,21.01
2023-05-10T14:05:25.449Z,21.09
2023-05-10T14:07:57.041Z,20.58
2023-05-10T14:10:26.912Z,20.78
2023-05-10T14:12:58.862Z,20.74
2023-05-10T14:15:28.612Z,20.75
2023-05-10T14:17:59.038Z,20.59
2023-05-10T14:20:29.097Z,20.68
2023-05-10T14:22:59.400Z,20.36
2023-05-10T14:25:29.471Z,20.05
2023-05-10T14:28:01.122Z,19.91
2023-05-10T14:30:31.030Z,20.24
2023-05-10T14:33:02.466Z,20.18
2023-05-10T14:35:33.329Z,19.80
2023-05-10T14:38:04.858Z,19.91
2023-05-10T14:40:34.703Z,19.62
2023-05-10T14:43:06.328Z,19.56
2023-05-10T14:45:36.119Z,19.26
2023-05-10T14:48:07.085Z,19.16
2023-05-10T14:50:38.031Z,19.08
2023-05-10T14:53:08.524Z,18.98
2023-05-10T14:55:40.597Z,18.90
2023-05-10T14:58:12.180Z,18.85
2023-05-10T15:00:41.868Z,18.91
2023-05-10T15:03:12.771Z,18.85
2023-05-10T15:05:42.873Z,18.85
2023-05-10T15:08:13.732Z,18.68
2023-05-10T15:10:43.424Z,18.72
2023-05-10T15:13:15.442Z,18.66
2023-05-10T15:15:45.292Z,18.71
2023-05-10T15:18:15.517Z,18.79
2023-05-10T15:20:45.307Z,18.82
2023-05-10T15:23:15.512Z,18.76
2023-05-10T15:25:45.578Z,18.64
2023-05-10T15:28:17.211Z,18.74
2023-05-10T15:30:47.115Z,18.68
2023-05-10T15:33:17.863Z,18.77
2023-05-10T15:35:48.203Z,18.77
2023-05-10T15:38:19.638Z,18.62
2023-05-10T15:40:49.344Z,18.60
2023-05-10T15:43:21.000Z,18.66
2023-05-10T15:45:50.807Z,18.69
2023-05-10T15:48:20.866Z,18.80
2023-05-10T15:50:50.520Z,18.90
2023-05-10T15:53:20.760Z,18.73
2023-05-10T15:55:50.601Z,18.67
2023-05-10T15:58:22.350Z,18.75
2023-05-10T16:00:52.086Z,18.83
2023-05-10T16:03:22.190Z,18.70
2023-05-10T16:05:52.129Z,18.75
2023-05-10T16:08:22.242Z,18.58
2023-05-10T16:10:52.750Z,18.64
2023-05-10T16:13:24.378Z,18.59
2023-05-10T16:15:54.216Z,18.62
2023-05-10T16:18:24.362Z,18.57
2023-05-10T16:20:54.712Z,18.59
2023-05-10T16:23:24.896Z,18.53
2023-05-10T16:25:55.282Z,18.50
2023-05-10T16:28:30.208Z,18.52
2023-05-10T16:34:27.688Z,18.49
2023-05-10T16:36:57.918Z,18.41
2023-05-10T16:39:49.758Z,18.37
2023-05-10T16:46:29.683Z,18.39
2023-05-10T16:49:00.070Z,18.34
2023-05-10T16:51:30.692Z,18.29
2023-05-10T16:54:00.616Z,18.26
2023-05-10T16:56:30.732Z,18.22
2023-05-10T16:59:00.906Z,18.18
2023-05-10T17:02:06.580Z,18.05
2023-05-10T17:04:36.889Z,18.12
2023-05-10T17:07:10.820Z,18.06
2023-05-10T17:10:05.448Z,18.06
2023-05-10T17:17:10.507Z,17.72
2023-05-10T17:20:06.175Z,17.72
2023-05-10T17:22:45.470Z,17.50
2023-05-10T17:25:47.911Z,17.52
2023-05-10T17:29:09.859Z,17.42
2023-05-10T17:35:12.663Z,17.20
2023-05-10T17:37:45.651Z,17.15
2023-05-10T17:44:11.695Z,16.95
2023-05-10T17:46:45.581Z,16.92
2023-05-10T17:49:36.606Z,16.81
2023-05-10T17:52:56.165Z,16.73
2023-05-10T18:00:06.307Z,16.41
2023-05-10T18:03:06.693Z,16.31
2023-05-10T18:06:18.935Z,16.22
2023-05-10T18:09:14.315Z,16.06
2023-05-10T18:11:53.895Z,15.93
2023-05-10T18:18:05.413Z,15.64
2023-05-10T18:20:39.037Z,15.54
2023-05-10T18:23:29.657Z,15.48
2023-05-10T18:26:16.235Z,15.34
2023-05-10T18:32:03.249Z,15.07
2023-05-10T18:35:47.865Z,14.97
2023-05-10T18:38:29.940Z,14.65
2023-05-10T18:44:32.895Z,13.84
2023-05-10T18:47:09.946Z,13.44
2023-05-10T18:53:40.235Z,12.70
2023-05-10T19:02:37.619Z,11.77
2023-05-10T19:05:23.145Z,11.55
2023-05-10T19:08:02.619Z,11.68
2023-05-10T19:10:34.420Z,11.77
2023-05-10T19:13:07.823Z,11.52
2023-05-10T19:19:24.670Z,11.04
2023-05-10T19:22:31.588Z,10.65
2023-05-10T19:25:08.282Z,10.55
2023-05-10T19:28:49.254Z,10.58
2023-05-10T19:31:34.101Z,10.37
2023-05-10T19:34:48.974Z,10.15
2023-05-10T19:40:58.438Z,10.16
2023-05-10T19:43:47.365Z,9.91
2023-05-10T19:50:04.246Z,9.83
2023-05-10T19:53:11.727Z,9.72
2023-05-10T19:57:12.090Z,9.47
2023-05-10T19:59:46.333Z,9.24
2023-05-10T20:02:59.013Z,9.18
2023-05-10T20:05:47.995Z,8.98
2023-05-10T20:08:53.388Z,8.95
2023-05-10T20:11:48.621Z,8.88
2023-05-10T20:15:10.487Z,8.77
2023-05-10T20:18:34.501Z,8.57
2023-05-10T20:21:49.001Z,8.53
2023-05-10T20:27:18.378Z,8.38
2023-05-10T20:33:55.381Z,8.18
2023-05-10T20:37:12.218Z,8.13
2023-05-10T20:39:58.234Z,7.91
2023-05-10T20:42:31.985Z,7.81
2023-05-10T20:46:00.505Z,7.76
2023-05-10T20:53:13.420Z,7.57
2023-05-10T20:56:23.654Z,7.58
2023-05-10T20:58:59.556Z,7.66
2023-05-10T21:01:59.597Z,7.59
2023-05-10T21:04:46.232Z,7.32
2023-05-10T21:07:21.674Z,7.20
2023-05-10T21:10:47.288Z,7.19
2023-05-10T21:14:24.788Z,7.08
2023-05-10T21:17:18.130Z,7.04
2023-05-10T21:20:04.693Z,7.02
2023-05-10T21:22:58.648Z,6.93
2023-05-10T21:25:34.863Z,6.88
2023-05-10T21:28:58.910Z,6.88
2023-05-10T21:35:34.370Z,6.74
2023-05-10T21:38:04.517Z,6.69
2023-05-10T21:40:34.196Z,6.64
2023-05-10T21:43:04.470Z,6.63
2023-05-10T21:45:34.346Z,6.53
2023-05-10T21:48:04.736Z,6.44
2023-05-10T21:50:36.066Z,6.43
2023-05-10T21:53:06.322Z,6.48
2023-05-10T21:55:36.222Z,6.50
2023-05-10T21:58:06.423Z,6.54
2023-05-10T22:00:36.206Z,6.60
2023-05-10T22:03:06.445Z,6.67
2023-05-10T22:05:37.685Z,6.69
2023-05-10T22:08:08.170Z,6.68
2023-05-10T22:10:37.894Z,6.56
2023-05-10T22:13:08.197Z,6.46
2023-05-10T22:15:37.862Z,6.39
2023-05-10T22:18:08.456Z,6.31
2023-05-10T22:20:39.827Z,6.19
2023-05-10T22:23:11.077Z,6.06
2023-05-10T22:25:40.933Z,6.01
2023-05-10T22:28:11.199Z,5.93
2023-05-10T22:30:41.035Z,5.75
2023-05-10T22:33:11.060Z,5.74
2023-05-10T22:35:42.302Z,5.71
2023-05-10T22:38:13.092Z,5.69
2023-05-10T22:40:43.296Z,5.61
2023-05-10T22:43:14.483Z,5.58
2023-05-10T22:45:44.713Z,5.55
2023-05-10T22:48:16.222Z,5.50
2023-05-10T22:50:47.491Z,5.39
2023-05-10T22:53:17.736Z,5.24
2023-05-10T22:55:47.721Z,5.15
2023-05-10T22:58:17.875Z,5.18
2023-05-10T23:00:47.703Z,5.19
2023-05-10T23:03:17.869Z,5.24
2023-05-10T23:05:49.736Z,5.28
2023-05-10T23:08:19.863Z,5.19
2023-05-10T23:10:49.958Z,5.17
2023-05-10T23:13:21.340Z,5.15
2023-05-10T23:15:51.202Z,5.15
2023-05-10T23:18:21.452Z,5.15
2023-05-10T23:20:52.636Z,5.13
2023-05-10T23:23:23.198Z,5.06
2023-05-10T23:25:54.081Z,5.01
2023-05-10T23:28:24.098Z,4.97
2023-05-10T23:30:56.144Z,4.98
2023-05-10T23:33:26.909Z,4.90
2023-05-10T23:35:57.965Z,4.85
2023-05-10T23:38:28.116Z,4.89
2023-05-10T23:40:58.011Z,4.93
2023-05-10T23:43:28.116Z,4.86
2023-05-10T23:45:58.749Z,4.83
2023-05-10T23:48:28.930Z,4.78
2023-05-10T23:51:00.132Z,4.70
2023-05-10T23:53:30.318Z,4.51
2023-05-10T23:56:00.070Z,4.49
2023-05-10T23:58:30.209Z,4.43
